Time;durP1;ratioP1;P1;durP2;ratioP2;P2;SDS_P1;SDS_P2;PMS_P1;PMS_P2;Temp;Humidity;BMP_temperature;BMP_pressure;BME280_temperature;BME280_humidity;BME280_pressure;Samples;Min_cycle;Max_cycle;Signal;HPM_P1;HPM_P2
2023/02/24 00:01:36;;;;;;;5.53;3.78;;;;;;;;;;5084066;28;20047;-47
2023/02/24 00:04:06;;;;;;;5.55;4.20;;;;;;;;;;5086765;28;20024;-48
2023/02/24 00:06:36;;;;;;;6.60;3.65;;;;;;;;;;5080619;28;20035;-48
2023/02/24 00:09:14;;;;;;;5.65;3.97;;;;;;;;;;5067776;28;20029;-50
2023/02/24 00:11:43;;;;;;;7.25;4.60;;;;;;;;;;5085826;28;20551;-47
2023/02/24 00:14:11;;;;;;;9.40;5.20;;;;;;;;;;5085292;28;20036;-48
2023/02/24 00:16:37;;;;;;;6.28;4.35;;;;;;;;;;5085244;28;20020;-46
2023/02/24 00:19:06;;;;;;;6.97;4.68;;;;;;;;;;5085639;28;20028;-47
2023/02/24 00:21:34;;;;;;;8.00;5.03;;;;;;;;;;5067294;28;20498;-50
2023/02/24 00:24:00;;;;;;;4.72;3.63;;;;;;;;;;5085804;28;20027;-47
2023/02/24 00:26:28;;;;;;;7.43;4.40;;;;;;;;;;5085241;28;20031;-47
2023/02/24 00:28:58;;;;;;;6.28;3.92;;;;;;;;;;5085616;28;20058;-49
2023/02/24 00:31:29;;;;;;;7.70;5.00;;;;;;;;;;5085109;28;20038;-50
2023/02/24 00:33:55;;;;;;;7.60;4.85;;;;;;;;;;5084989;28;20030;-47
2023/02/24 00:36:25;;;;;;;6.53;5.18;;;;;;;;;;5084361;28;20388;-53
2023/02/24 00:38:56;;;;;;;7.53;5.35;;;;;;;;;;5085080;28;20020;-46
2023/02/24 00:41:24;;;;;;;6.68;4.57;;;;;;;;;;5066682;28;20773;-46
2023/02/24 00:43:50;;;;;;;8.18;5.05;;;;;;;;;;5066690;28;20052;-46
2023/02/24 00:46:19;;;;;;;8.50;5.70;;;;;;;;;;5084622;28;20115;-49
2023/02/24 00:48:46;;;;;;;7.00;4.90;;;;;;;;;;5084641;28;20056;-49
2023/02/24 00:51:15;;;;;;;6.28;4.72;;;;;;;;;;5084661;28;20441;-48
2023/02/24 00:53:42;;;;;;;6.13;4.75;;;;;;;;;;5084879;28;20442;-49
2023/02/24 00:56:10;;;;;;;6.72;4.28;;;;;;;;;;5084748;28;20116;-50
2023/02/24 00:58:38;;;;;;;7.25;4.93;;;;;;;;;;5084011;28;20030;-48
2023/02/24 01:01:07;;;;;;;6.25;4.57;;;;;;;;;;5084632;28;20278;-49
2023/02/24 01:03:33;;;;;;;6.38;4.45;;;;;;;;;;5084500;28;20103;-46
2023/02/24 06:11:40;;;;;;;12.45;7.85;;;;;;;;;;5082045;28;20071;-48
2023/02/24 06:14:07;;;;;;;10.88;7.25;;;;;;;;;;5086233;28;20028;-49
2023/02/24 06:16:34;;;;;;;9.63;6.82;;;;;;;;;;5087416;28;20024;-48
2023/02/24 06:19:00;;;;;;;12.27;7.10;;;;;;;;;;5087717;28;20036;-49
2023/02/24 06:21:29;;;;;;;10.07;7.07;;;;;;;;;;5087969;28;20020;-49
2023/02/24 06:23:59;;;;;;;11.63;7.70;;;;;;;;;;5088563;28;20062;-47
2023/02/24 06:26:28;;;;;;;11.38;7.65;;;;;;;;;;5088006;28;20020;-48
2023/02/24 06:28:57;;;;;;;11.00;7.18;;;;;;;;;;5091339;28;20076;-49
2023/02/24 06:31:23;;;;;;;10.35;7.63;;;;;;;;;;5092040;28;20028;-48
2023/02/24 06:33:52;;;;;;;11.52;7.82;;;;;;;;;;5091523;28;20040;-49
2023/02/24 06:36:18;;;;;;;12.27;8.35;;;;;;;;;;5071185;28;20045;-49
2023/02/24 06:38:45;;;;;;;13.35;8.40;;;;;;;;;;5071926;28;20795;-47
2023/02/24 06:41:11;;;;;;;14.43;8.77;;;;;;;;;;5081041;28;20154;-47
2023/02/24 06:43:42;;;;;;;9.75;7.28;;;;;;;;;;5091758;28;20024;-51
2023/02/24 06:46:08;;;;;;;12.20;7.65;;;;;;;;;;5092891;28;20020;-50
2023/02/24 06:48:35;;;;;;;10.20;7.07;;;;;;;;;;5091193;28;20032;-49
2023/02/24 06:51:05;;;;;;;10.23;6.85;;;;;;;;;;5091279;28;20020;-51
2023/02/24 06:53:34;;;;;;;11.27;7.57;;;;;;;;;;5091594;28;20055;-50
2023/02/24 06:56:05;;;;;;;12.93;8.15;;;;;;;;;;5091159;28;20047;-49
2023/02/24 06:58:32;;;;;;;11.48;7.50;;;;;;;;;;5091259;28;20060;-50
2023/02/24 07:00:58;;;;;;;11.25;7.53;;;;;;;;;;5091138;28;20024;-51
2023/02/24 07:03:38;;;;;;;11.18;7.78;;;;;;;;;;5086628;28;20017;-47
2023/02/24 07:06:19;;;;;;;10.50;7.65;;;;;;;;;;5084054;28;20032;-51
2023/02/24 07:08:45;;;;;;;10.60;6.93;;;;;;;;;;5090497;28;20031;-52
2023/02/24 07:11:12;;;;;;;10.32;6.90;;;;;;;;;;5090180;28;20513;-51
2023/02/24 07:13:39;;;;;;;9.50;6.78;;;;;;;;;;5086551;28;20024;-49
2023/02/24 07:16:06;;;;;;;11.93;7.50;;;;;;;;;;5089900;28;20494;-52
2023/02/24 07:18:35;;;;;;;9.80;6.53;;;;;;;;;;5090801;28;20157;-49
2023/02/24 07:21:10;;;;;;;10.27;7.10;;;;;;;;;;5090776;28;20479;-52
2023/02/24 07:23:37;;;;;;;;;;;;;;;;;;5090789;28;20028;-50
2023/02/24 07:26:10;;;;;;;12.68;7.05;;;;;;;;;;5089368;28;20407;-48
2023/02/24 07:28:38;;;;;;;9.40;6.80;;;;;;;;;;5090351;28;20024;-49
2023/02/24 07:31:10;;;;;;;10.73;7.32;;;;;;;;;;5090614;28;20031;-49
2023/02/24 07:33:36;;;;;;;9.27;5.97;;;;;;;;;;5090382;28;20020;-47
2023/02/24 07:36:08;;;;;;;8.68;6.68;;;;;;;;;;5090021;28;20453;-48
2023/02/24 07:38:36;;;;;;;9.68;6.47;;;;;;;;;;5070553;28;20056;-48
2023/02/24 07:41:03;;;;;;;13.52;6.90;;;;;;;;;;5088256;28;20499;-49
2023/02/24 07:43:29;;;;;;;8.63;6.18;;;;;;;;;;5088635;28;20490;-49
2023/02/24 07:45:56;;;;;;;9.35;5.85;;;;;;;;;;5088880;28;20063;-48
2023/02/24 07:48:24;;;;;;;10.38;6.75;;;;;;;;;;5090830;28;20499;-51
2023/02/24 07:50:51;;;;;;;9.40;6.07;;;;;;;;;;5089555;28;20024;-47
2023/02/24 07:53:17;;;;;;;7.80;5.70;;;;;;;;;;5088550;28;20027;-49
2023/02/24 07:55:45;;;;;;;8.85;5.70;;;;;;;;;;5087963;28;20028;-50
2023/02/24 07:58:11;;;;;;;10.48;6.85;;;;;;;;;;5088865;28;20016;-52
2023/02/24 08:00:58;;;;;;;9.52;6.43;;;;;;;;;;5088705;28;20035;-48
2023/02/24 08:03:24;;;;;;;9.95;6.60;;;;;;;;;;5069941;28;20433;-51
2023/02/24 08:05:52;;;;;;;8.68;5.75;;;;;;;;;;5088344;28;20028;-50
2023/02/24 08:08:19;;;;;;;9.07;6.68;;;;;;;;;;5088268;28;20054;-48
2023/02/24 08:10:46;;;;;;;11.18;7.85;;;;;;;;;;5088515;28;20035;-48
2023/02/24 08:13:13;;;;;;;12.77;8.55;;;;;;;;;;5086154;28;20061;-47
2023/02/24 08:15:39;;;;;;;16.05;8.82;;;;;;;;;;5087447;28;20537;-52
2023/02/24 08:18:05;;;;;;;15.10;8.15;;;;;;;;;;5057675;28;20025;-49
2023/02/24 08:20:52;;;;;;;11.85;8.70;;;;;;;;;;5046409;28;20032;-48
2023/02/24 08:23:18;;;;;;;11.18;7.32;;;;;;;;;;5045905;28;20029;-48
2023/02/24 08:25:44;;;;;;;8.55;6.28;;;;;;;;;;5064582;28;20028;-48
2023/02/24 08:28:11;;;;;;;12.10;7.07;;;;;;;;;;5067489;28;20052;-48
2023/02/24 08:30:38;;;;;;;12.07;7.43;;;;;;;;;;5067806;28;20428;-49
2023/02/24 08:33:09;;;;;;;13.82;8.25;;;;;;;;;;5066043;28;20256;-47
2023/02/24 08:35:37;;;;;;;11.40;6.95;;;;;;;;;;5066167;28;20089;-48
2023/02/24 08:38:06;;;;;;;10.48;6.63;;;;;;;;;;5065500;28;20597;-49
2023/02/24 08:43:29;;;;;;;8.13;5.63;;;;;;;;;;5065106;28;20054;-48
2023/02/24 08:46:02;;;;;;;8.52;6.10;;;;;;;;;;5069620;28;20280;-48
2023/02/24 08:48:41;;;;;;;9.13;6.65;;;;;;;;;;5065662;28;20028;-49
2023/02/24 08:51:16;;;;;;;11.38;6.38;;;;;;;;;;5064961;28;20025;-48
2023/02/24 08:53:42;;;;;;;9.43;5.95;;;;;;;;;;5061774;28;20026;-48
2023/02/24 08:56:12;;;;;;;11.00;5.85;;;;;;;;;;5066346;28;20561;-48
2023/02/24 08:58:40;;;;;;;9.82;7.10;;;;;;;;;;5066387;28;20021;-48
2023/02/24 09:01:22;;;;;;;10.75;6.38;;;;;;;;;;5070255;28;20024;-49
2023/02/24 09:03:50;;;;;;;9.15;5.90;;;;;;;;;;5065434;28;20107;-51
2023/02/24 09:06:24;;;;;;;8.32;5.97;;;;;;;;;;5064654;28;20636;-48
2023/02/24 09:09:15;;;;;;;8.68;6.07;;;;;;;;;;5065775;28;20427;-48
2023/02/24 09:11:37;;;;;;;10.43;6.68;;;;;;;;;;5064977;28;20400;-48
2023/02/24 09:14:03;;;;;;;10.07;6.00;;;;;;;;;;5065719;28;20035;-48
2023/02/24 09:16:30;;;;;;;8.05;5.43;;;;;;;;;;5085231;28;20024;-48
2023/02/24 09:19:39;;;;;;;7.95;5.63;;;;;;;;;;5084583;28;20054;-49
2023/02/24 09:22:13;;;;;;;7.82;5.38;;;;;;;;;;5075892;28;20438;-48
2023/02/24 09:24:39;;;;;;;7.43;5.28;;;;;;;;;;5085932;28;20437;-49
2023/02/24 09:27:06;;;;;;;7.68;4.95;;;;;;;;;;5085106;28;20043;-50
2023/02/24 09:29:47;;;;;;;8.85;4.95;;;;;;;;;;5084986;28;20028;-48
2023/02/24 09:32:15;;;;;;;6.35;4.45;;;;;;;;;;5085147;28;20066;-50
2023/02/24 09:34:45;;;;;;;5.97;4.28;;;;;;;;;;5086005;28;20024;-48
2023/02/24 09:37:24;;;;;;;7.10;4.68;;;;;;;;;;5084808;28;20534;-48
2023/02/24 09:44:54;;;;;;;5.65;3.95;;;;;;;;;;5085344;28;20039;-51
2023/02/24 09:50:13;;;;;;;5.20;3.80;;;;;;;;;;5093749;28;20433;-47
2023/02/24 09:52:40;;;;;;;5.85;4.05;;;;;;;;;;5086987;28;20466;-50
2023/02/24 09:55:23;;;;;;;6.43;4.22;;;;;;;;;;5084606;28;20077;-51
2023/02/24 10:00:50;;;;;;;5.30;3.67;;;;;;;;;;5066316;28;20029;-49
2023/02/24 10:03:41;;;;;;;5.50;4.07;;;;;;;;;;5079813;28;20028;-48
2023/02/24 10:06:13;;;;;;;5.70;3.80;;;;;;;;;;5091125;28;20028;-49
2023/02/24 10:08:44;;;;;;;5.32;3.95;;;;;;;;;;5090889;28;20035;-46
2023/02/24 10:11:11;;;;;;;5.85;4.40;;;;;;;;;;5089887;28;20055;-46
2023/02/24 10:13:42;;;;;;;5.15;3.45;;;;;;;;;;5089431;28;20042;-47
2023/02/24 10:16:10;;;;;;;5.60;4.05;;;;;;;;;;5084483;28;20024;-46
2023/02/24 10:18:39;;;;;;;5.88;4.13;;;;;;;;;;5090236;28;20090;-49
2023/02/24 10:21:17;;;;;;;4.28;3.47;;;;;;;;;;5089155;28;20031;-46
2023/02/24 10:24:13;;;;;;;5.38;3.97;;;;;;;;;;5095060;28;20038;-47
2023/02/24 10:26:47;;;;;;;5.57;3.58;;;;;;;;;;5067307;28;20047;-49
2023/02/24 10:29:28;;;;;;;5.47;3.42;;;;;;;;;;5088690;28;20024;-48
2023/02/24 10:32:00;;;;;;;4.57;3.10;;;;;;;;;;5088581;28;20530;-47
2023/02/24 10:34:33;;;;;;;3.60;3.05;;;;;;;;;;5088631;28;20036;-49
2023/02/24 10:37:11;;;;;;;5.03;3.13;;;;;;;;;;5088562;28;20056;-47
2023/02/24 10:39:42;;;;;;;3.17;2.42;;;;;;;;;;5088467;28;20031;-48
2023/02/24 10:42:14;;;;;;;4.10;2.65;;;;;;;;;;5088127;28;20016;-46
2023/02/24 10:44:53;;;;;;;2.97;2.63;;;;;;;;;;5088515;28;20024;-46
2023/02/24 10:47:29;;;;;;;4.10;3.10;;;;;;;;;;5088940;28;20020;-47
2023/02/24 10:49:56;;;;;;;5.50;3.42;;;;;;;;;;5088217;28;20441;-47
2023/02/24 10:52:36;;;;;;;4.78;2.58;;;;;;;;;;5088377;28;20035;-45
2023/02/24 10:55:27;;;;;;;4.72;3.40;;;;;;;;;;5087998;28;20031;-48
2023/02/24 10:58:04;;;;;;;4.18;3.00;;;;;;;;;;5088466;28;20060;-50
2023/02/24 11:01:39;;;;;;;4.95;3.30;;;;;;;;;;5088439;28;20434;-47
2023/02/24 11:03:40;;;;;;;4.45;3.30;;;;;;;;;;5070940;28;20039;-46
2023/02/24 11:06:29;;;;;;;3.80;2.97;;;;;;;;;;5088989;28;20031;-49
2023/02/24 11:09:18;;;;;;;3.53;2.85;;;;;;;;;;5088319;28;20036;-48
2023/02/24 11:17:25;;;;;;;5.10;3.72;;;;;;;;;;5078266;28;20078;-47
2023/02/24 11:20:14;;;;;;;3.78;2.80;;;;;;;;;;5088311;28;20890;-49
2023/02/24 11:22:42;;;;;;;4.45;3.15;;;;;;;;;;5051309;28;20093;-51
2023/02/24 11:25:16;;;;;;;4.38;2.67;;;;;;;;;;5088295;28;20020;-47
2023/02/24 11:27:42;;;;;;;3.03;2.47;;;;;;;;;;5084413;28;20130;-47
2023/02/24 11:30:29;;;;;;;4.47;3.25;;;;;;;;;;5088208;28;20031;-50
2023/02/24 11:33:16;;;;;;;6.65;4.03;;;;;;;;;;5088058;28;20028;-49
2023/02/24 11:36:04;;;;;;;7.10;4.18;;;;;;;;;;5088643;28;20758;-49
2023/02/24 11:38:38;;;;;;;6.32;3.42;;;;;;;;;;5087952;28;20032;-47
2023/02/24 11:41:25;;;;;;;7.40;3.80;;;;;;;;;;5087894;28;20052;-49
2023/02/24 11:44:00;;;;;;;9.75;4.40;;;;;;;;;;5088867;28;20028;-46
2023/02/24 11:46:34;;;;;;;11.18;4.95;;;;;;;;;;5085240;28;20515;-48
2023/02/24 11:49:02;;;;;;;9.77;3.83;;;;;;;;;;5088001;28;20468;-46
2023/02/24 11:51:33;;;;;;;7.32;3.20;;;;;;;;;;5068689;28;20537;-47
2023/02/24 11:54:25;;;;;;;8.38;3.35;;;;;;;;;;5076030;28;20024;-47
2023/02/24 11:56:58;;;;;;;9.15;3.17;;;;;;;;;;5065823;28;20203;-48
2023/02/24 11:59:39;;;;;;;7.18;3.40;;;;;;;;;;5087160;28;20028;-47
2023/02/24 12:02:24;;;;;;;9.55;3.75;;;;;;;;;;5085724;28;20024;-48
2023/02/24 12:05:11;;;;;;;11.90;4.00;;;;;;;;;;5085914;28;20024;-48
2023/02/24 12:07:42;;;;;;;15.77;4.47;;;;;;;;;;5083185;28;20024;-48
2023/02/24 12:10:25;;;;;;;10.48;4.35;;;;;;;;;;5079048;28;20039;-49
2023/02/24 12:13:05;;;;;;;9.27;4.00;;;;;;;;;;5082767;28;20440;-48
2023/02/24 12:15:37;;;;;;;13.00;4.93;;;;;;;;;;5082085;28;20059;-48
2023/02/24 12:18:10;;;;;;;12.52;4.35;;;;;;;;;;5086670;28;20028;-48
2023/02/24 12:20:56;;;;;;;14.45;4.97;;;;;;;;;;5080506;28;20028;-50
2023/02/24 12:23:43;;;;;;;9.63;4.10;;;;;;;;;;5083235;28;20496;-48
2023/02/24 12:26:12;;;;;;;9.55;4.05;;;;;;;;;;5083832;28;20059;-49
2023/02/24 12:28:53;;;;;;;6.57;3.17;;;;;;;;;;5076563;28;20469;-49
2023/02/24 12:31:20;;;;;;;3.58;2.40;;;;;;;;;;5082768;28;20024;-48
2023/02/24 12:34:07;;;;;;;4.75;2.83;;;;;;;;;;5082856;28;20130;-49
2023/02/24 12:36:42;;;;;;;12.00;3.70;;;;;;;;;;5082651;28;20036;-49
2023/02/24 12:39:17;;;;;;;12.73;4.63;;;;;;;;;;5084568;28;20023;-48
2023/02/24 12:41:43;;;;;;;11.38;3.53;;;;;;;;;;5083326;28;20105;-48
2023/02/24 12:44:30;;;;;;;13.40;4.10;;;;;;;;;;5084552;28;20058;-47
2023/02/24 12:47:17;;;;;;;12.65;4.05;;;;;;;;;;5042914;28;20050;-49
2023/02/24 12:49:58;;;;;;;9.63;3.55;;;;;;;;;;5083788;28;20028;-48
2023/02/24 12:52:53;;;;;;;8.57;3.03;;;;;;;;;;5078759;28;20043;-47
2023/02/24 12:55:28;;;;;;;11.80;3.65;;;;;;;;;;5058320;28;20066;-48
2023/02/24 12:57:54;;;;;;;11.70;3.75;;;;;;;;;;5081948;28;20036;-53
2023/02/24 13:00:24;;;;;;;11.48;3.53;;;;;;;;;;5084502;28;20012;-48
2023/02/24 13:02:51;;;;;;;7.50;2.65;;;;;;;;;;5083172;28;20028;-48
2023/02/24 13:05:24;;;;;;;6.13;3.00;;;;;;;;;;5083323;28;20072;-52
2023/02/24 13:07:57;;;;;;;13.00;3.75;;;;;;;;;;5093628;28;20039;-47
2023/02/24 13:10:35;;;;;;;8.52;3.17;;;;;;;;;;5079028;28;20074;-48
2023/02/24 13:13:15;;;;;;;7.15;3.72;;;;;;;;;;5085296;28;20031;-48
2023/02/24 13:15:54;;;;;;;9.60;3.60;;;;;;;;;;5085699;28;20040;-50
2023/02/24 13:18:28;;;;;;;8.93;3.33;;;;;;;;;;5085123;28;20286;-47
2023/02/24 13:21:06;;;;;;;8.98;3.13;;;;;;;;;;5085738;28;20099;-49
2023/02/24 13:23:32;;;;;;;8.65;2.92;;;;;;;;;;5067805;28;20101;-48
2023/02/24 13:25:58;;;;;;;11.95;4.68;;;;;;;;;;5085620;28;20039;-47
2023/02/24 13:28:31;;;;;;;7.95;3.25;;;;;;;;;;5085705;28;20024;-50
2023/02/24 13:31:05;;;;;;;11.53;4.30;;;;;;;;;;5085312;28;20036;-49
2023/02/24 13:33:34;;;;;;;10.20;3.83;;;;;;;;;;5085639;28;20330;-48
2023/02/24 13:36:15;;;;;;;12.85;4.03;;;;;;;;;;5085417;28;20020;-48
2023/02/24 13:38:46;;;;;;;12.50;4.15;;;;;;;;;;5084909;28;20020;-50
2023/02/24 13:41:21;;;;;;;12.73;4.75;;;;;;;;;;5084896;28;20052;-50
2023/02/24 13:43:57;;;;;;;7.03;3.47;;;;;;;;;;5085340;28;20027;-49
2023/02/24 13:46:23;;;;;;;12.00;4.00;;;;;;;;;;5085511;28;20348;-47
2023/02/24 13:48:55;;;;;;;9.30;3.55;;;;;;;;;;5085174;28;20078;-48
2023/02/24 13:51:33;;;;;;;9.43;3.92;;;;;;;;;;5084918;28;20028;-49
2023/02/24 13:54:14;;;;;;;13.10;4.35;;;;;;;;;;5085049;28;20032;-48
2023/02/24 13:56:59;;;;;;;8.65;3.65;;;;;;;;;;5085195;28;20028;-48
2023/02/24 13:59:41;;;;;;;5.88;3.53;;;;;;;;;;5085714;28;20555;-51
2023/02/24 14:02:10;;;;;;;6.45;2.70;;;;;;;;;;5067497;28;20398;-49
2023/02/24 14:04:38;;;;;;;10.75;3.28;;;;;;;;;;5085817;28;20402;-47
2023/02/24 14:07:09;;;;;;;8.38;3.42;;;;;;;;;;5085720;28;20032;-47
2023/02/24 14:09:42;;;;;;;11.98;3.55;;;;;;;;;;5085673;28;20407;-48
2023/02/24 14:12:13;;;;;;;9.30;4.05;;;;;;;;;;5084800;28;20085;-47
2023/02/24 14:14:40;;;;;;;15.48;3.80;;;;;;;;;;5085076;28;20124;-49
2023/02/24 14:17:06;;;;;;;8.13;3.83;;;;;;;;;;5085656;28;20028;-49
2023/02/24 14:19:31;;;;;;;12.77;4.18;;;;;;;;;;5085118;28;20020;-50
2023/02/24 14:21:58;;;;;;;12.35;4.47;;;;;;;;;;5085365;28;20036;-51
2023/02/24 14:24:26;;;;;;;11.40;4.35;;;;;;;;;;5084943;28;20439;-47
2023/02/24 14:26:52;;;;;;;8.48;3.50;;;;;;;;;;5084900;28;20388;-50
2023/02/24 14:29:23;;;;;;;11.25;3.88;;;;;;;;;;5084935;28;20089;-49
2023/02/24 14:31:53;;;;;;;6.00;2.70;;;;;;;;;;5084789;28;20032;-50
2023/02/24 14:34:24;;;;;;;6.85;2.78;;;;;;;;;;5084699;28;20025;-48
2023/02/24 14:36:52;;;;;;;14.82;6.45;;;;;;;;;;5084930;28;20036;-49
2023/02/24 14:39:19;;;;;;;11.95;5.47;;;;;;;;;;5084373;28;20029;-51
2023/02/24 14:41:47;;;;;;;11.55;4.78;;;;;;;;;;5084805;28;20032;-51
2023/02/24 14:44:22;;;;;;;10.05;4.00;;;;;;;;;;5084851;28;20031;-49
2023/02/24 14:46:52;;;;;;;10.35;4.40;;;;;;;;;;5084792;28;20035;-48
2023/02/24 14:49:23;;;;;;;11.00;4.30;;;;;;;;;;5086716;28;20028;-50
2023/02/24 14:51:55;;;;;;;9.88;3.97;;;;;;;;;;5088270;28;20406;-49
2023/02/24 14:54:24;;;;;;;6.32;3.00;;;;;;;;;;5087943;28;20024;-49
2023/02/24 14:56:50;;;;;;;6.07;2.85;;;;;;;;;;5103946;28;20032;-46
2023/02/24 14:59:36;;;;;;;5.35;2.05;;;;;;;;;;5088248;28;20043;-48
2023/02/24 15:02:03;;;;;;;6.60;2.20;;;;;;;;;;5088578;28;20566;-46
2023/02/24 15:04:38;;;;;;;8.20;1.85;;;;;;;;;;5088099;28;20020;-48
2023/02/24 15:07:07;;;;;;;4.00;1.45;;;;;;;;;;5088417;28;20352;-50
2023/02/24 15:09:35;;;;;;;2.95;1.50;;;;;;;;;;5088544;28;20024;-51
2023/02/24 15:12:08;;;;;;;2.35;1.70;;;;;;;;;;5087880;28;20403;-49
2023/02/24 15:14:34;;;;;;;3.30;1.17;;;;;;;;;;5088426;28;20070;-48
2023/02/24 15:17:20;;;;;;;2.13;0.98;;;;;;;;;;5087558;28;20032;-50
2023/02/24 15:19:53;;;;;;;1.00;0.90;;;;;;;;;;5087884;28;20031;-48
2023/02/24 15:22:29;;;;;;;3.13;1.02;;;;;;;;;;5087733;28;20035;-50
2023/02/24 15:25:10;;;;;;;3.08;1.45;;;;;;;;;;5088083;28;20524;-48
2023/02/24 15:27:36;;;;;;;2.20;1.30;;;;;;;;;;5088366;28;20031;-50
2023/02/24 15:30:23;;;;;;;6.18;1.15;;;;;;;;;;5088251;28;20020;-49
2023/02/24 15:32:58;;;;;;;1.88;1.20;;;;;;;;;;5087420;28;20123;-51
2023/02/24 15:35:24;;;;;;;3.53;1.23;;;;;;;;;;5087716;28;20141;-51
2023/02/24 15:37:51;;;;;;;3.83;1.55;;;;;;;;;;5087450;28;20036;-50
2023/02/24 15:40:19;;;;;;;2.10;1.02;;;;;;;;;;5103153;28;20058;-48
2023/02/24 15:42:53;;;;;;;3.50;1.20;;;;;;;;;;5087187;28;20028;-47
2023/02/24 15:45:23;;;;;;;1.60;1.00;;;;;;;;;;5087825;28;20491;-49
2023/02/24 15:47:54;;;;;;;5.05;1.45;;;;;;;;;;5087387;28;20089;-47
2023/02/24 15:50:22;;;;;;;1.60;0.90;;;;;;;;;;5087755;28;20030;-48
2023/02/24 15:52:48;;;;;;;2.45;0.90;;;;;;;;;;5086672;28;20150;-48
2023/02/24 15:55:16;;;;;;;2.60;1.27;;;;;;;;;;5087251;28;20034;-51
2023/02/24 15:57:43;;;;;;;2.17;0.90;;;;;;;;;;5087043;28;20085;-48
2023/02/24 16:00:13;;;;;;;1.15;0.93;;;;;;;;;;5086464;28;20024;-48
2023/02/24 16:02:40;;;;;;;1.13;0.68;;;;;;;;;;5086864;28;20035;-48
2023/02/24 16:05:06;;;;;;;1.25;0.88;;;;;;;;;;5087534;28;20024;-49
2023/02/24 16:07:34;;;;;;;2.63;0.88;;;;;;;;;;5087538;28;20034;-47
2023/02/24 16:10:01;;;;;;;3.17;0.77;;;;;;;;;;5087049;28;20100;-48
2023/02/24 16:12:33;;;;;;;2.28;0.70;;;;;;;;;;5087065;28;20034;-49
2023/02/24 16:15:02;;;;;;;0.68;0.60;;;;;;;;;;5086931;28;20036;-49
2023/02/24 16:17:28;;;;;;;1.05;0.60;;;;;;;;;;5086688;28;20054;-50
2023/02/24 16:19:55;;;;;;;1.10;0.70;;;;;;;;;;5087067;28;20020;-48
2023/02/24 16:22:21;;;;;;;0.88;0.75;;;;;;;;;;5086609;28;20585;-49
2023/02/24 16:24:48;;;;;;;0.50;0.50;;;;;;;;;;5086608;28;20486;-50
2023/02/24 16:27:18;;;;;;;0.98;0.80;;;;;;;;;;5086575;28;20105;-48
2023/02/24 16:29:44;;;;;;;2.60;1.10;;;;;;;;;;5086473;28;20535;-49
2023/02/24 16:32:10;;;;;;;2.63;1.45;;;;;;;;;;5086166;28;20114;-48
2023/02/24 16:34:36;;;;;;;1.50;1.10;;;;;;;;;;5086976;28;20032;-50
2023/02/24 16:37:02;;;;;;;1.98;1.05;;;;;;;;;;5086560;28;20028;-50
2023/02/24 16:39:28;;;;;;;2.47;0.93;;;;;;;;;;5086322;28;20562;-51
2023/02/24 16:41:55;;;;;;;1.42;0.82;;;;;;;;;;5086268;28;20062;-48
2023/02/24 16:44:22;;;;;;;1.08;0.70;;;;;;;;;;5086307;28;20013;-50
2023/02/24 16:46:48;;;;;;;1.30;0.70;;;;;;;;;;5086324;28;20099;-50
2023/02/24 16:49:19;;;;;;;1.40;0.80;;;;;;;;;;5086130;28;20064;-49
2023/02/24 16:51:45;;;;;;;0.65;0.57;;;;;;;;;;5086041;28;20560;-48
2023/02/24 16:54:11;;;;;;;0.50;0.50;;;;;;;;;;5085901;28;20091;-48
2023/02/24 16:56:37;;;;;;;1.30;0.65;;;;;;;;;;5086023;28;20112;-49
2023/02/24 16:59:04;;;;;;;2.33;0.75;;;;;;;;;;5086424;28;20368;-48
2023/02/24 17:01:30;;;;;;;1.05;0.90;;;;;;;;;;5085895;28;20515;-47
2023/02/24 17:03:56;;;;;;;1.45;0.80;;;;;;;;;;5085922;28;20089;-48
2023/02/24 17:06:24;;;;;;;1.02;0.70;;;;;;;;;;5086291;28;20032;-47
2023/02/24 17:08:50;;;;;;;1.23;0.70;;;;;;;;;;5085610;28;20541;-48
2023/02/24 17:11:18;;;;;;;1.45;0.60;;;;;;;;;;5085719;28;20028;-47
2023/02/24 17:13:44;;;;;;;1.13;0.80;;;;;;;;;;5084713;28;20070;-47
2023/02/24 17:16:11;;;;;;;0.70;0.60;;;;;;;;;;5085270;28;20067;-49
2023/02/24 17:18:37;;;;;;;0.70;0.63;;;;;;;;;;5085858;28;20032;-48
2023/02/24 17:21:04;;;;;;;2.22;0.88;;;;;;;;;;5085926;28;20485;-48
2023/02/24 17:23:31;;;;;;;0.88;0.82;;;;;;;;;;5085829;28;20024;-49
2023/02/24 17:25:59;;;;;;;1.02;0.80;;;;;;;;;;5086652;28;20057;-48
2023/02/24 17:28:25;;;;;;;1.05;0.82;;;;;;;;;;5086462;28;20032;-50
2023/02/24 17:30:51;;;;;;;1.05;0.80;;;;;;;;;;5086664;28;20071;-48
2023/02/24 17:33:18;;;;;;;2.10;1.20;;;;;;;;;;5086441;28;20455;-50
2023/02/24 17:35:45;;;;;;;1.15;1.00;;;;;;;;;;5086686;28;20048;-48
2023/02/24 17:38:15;;;;;;;0.90;0.88;;;;;;;;;;5086382;28;20020;-50
2023/02/24 17:40:42;;;;;;;1.80;0.98;;;;;;;;;;5086411;28;20030;-47
2023/02/24 17:43:08;;;;;;;1.13;1.02;;;;;;;;;;5084721;28;20103;-50
2023/02/24 17:45:34;;;;;;;2.05;1.10;;;;;;;;;;5067490;28;20032;-47
2023/02/24 17:48:00;;;;;;;4.15;1.70;;;;;;;;;;5082147;28;20479;-48
2023/02/24 17:50:26;;;;;;;3.05;1.48;;;;;;;;;;5086404;28;20067;-48
2023/02/24 17:52:53;;;;;;;2.33;1.40;;;;;;;;;;5085856;28;20675;-50
2023/02/24 17:55:19;;;;;;;1.95;1.20;;;;;;;;;;5084165;28;20059;-48
2023/02/24 17:57:45;;;;;;;1.85;1.38;;;;;;;;;;5084849;28;20032;-45
2023/02/24 18:00:11;;;;;;;1.98;1.25;;;;;;;;;;5085553;28;20422;-48
2023/02/24 18:02:37;;;;;;;1.83;1.40;;;;;;;;;;5085946;28;20023;-46
2023/02/24 18:05:03;;;;;;;1.48;1.10;;;;;;;;;;5085496;28;20101;-46
2023/02/24 18:07:30;;;;;;;2.83;1.00;;;;;;;;;;5075188;28;20032;-48
2023/02/24 18:09:58;;;;;;;0.73;0.73;;;;;;;;;;5085657;28;20042;-49
2023/02/24 18:12:24;;;;;;;0.77;0.77;;;;;;;;;;5089673;28;20035;-49
2023/02/24 18:14:51;;;;;;;1.08;0.85;;;;;;;;;;5084909;28;20040;-45
2023/02/24 18:17:17;;;;;;;2.00;1.15;;;;;;;;;;5092588;28;20176;-47
2023/02/24 18:19:43;;;;;;;2.58;1.27;;;;;;;;;;5081105;28;20029;-47
2023/02/24 18:22:10;;;;;;;1.75;1.40;;;;;;;;;;5079239;28;20079;-49
2023/02/24 18:24:38;;;;;;;1.23;1.13;;;;;;;;;;5086763;28;20065;-46
2023/02/24 18:27:04;;;;;;;1.08;0.98;;;;;;;;;;5069211;28;20020;-49
2023/02/24 18:29:31;;;;;;;2.20;1.50;;;;;;;;;;5088962;28;20739;-46
2023/02/24 18:31:57;;;;;;;2.22;1.45;;;;;;;;;;5088992;28;20027;-47
2023/02/24 18:34:24;;;;;;;2.03;1.35;;;;;;;;;;5071204;28;20123;-45
2023/02/24 18:36:50;;;;;;;1.42;1.00;;;;;;;;;;5088647;28;20067;-46
2023/02/24 18:39:16;;;;;;;1.85;1.05;;;;;;;;;;5088710;28;20032;-48
2023/02/24 18:41:42;;;;;;;1.52;1.42;;;;;;;;;;5088704;28;20023;-46
2023/02/24 18:44:08;;;;;;;1.13;0.88;;;;;;;;;;5088858;28;20548;-47
2023/02/24 18:46:34;;;;;;;0.85;0.80;;;;;;;;;;5088002;28;20024;-50
2023/02/24 18:49:02;;;;;;;1.17;1.00;;;;;;;;;;5087863;28;20031;-48
2023/02/24 18:51:28;;;;;;;1.63;1.15;;;;;;;;;;5087646;28;20391;-47
2023/02/24 18:53:56;;;;;;;2.30;1.35;;;;;;;;;;5083641;28;20036;-47
2023/02/24 18:56:23;;;;;;;1.63;1.33;;;;;;;;;;5078493;28;20028;-48
2023/02/24 18:58:51;;;;;;;2.58;1.63;;;;;;;;;;5098080;28;20024;-46
2023/02/24 19:01:22;;;;;;;2.47;1.55;;;;;;;;;;5088526;28;20399;-49
2023/02/24 19:03:48;;;;;;;3.15;1.30;;;;;;;;;;5088191;28;20036;-46
2023/02/24 19:06:17;;;;;;;2.10;1.40;;;;;;;;;;5087080;28;20020;-46
2023/02/24 19:08:44;;;;;;;2.28;1.63;;;;;;;;;;5094840;28;20024;-48
2023/02/24 19:11:14;;;;;;;1.90;1.50;;;;;;;;;;5088240;28;20024;-49
2023/02/24 19:13:41;;;;;;;2.75;1.50;;;;;;;;;;5088112;28;20035;-46
2023/02/24 19:16:07;;;;;;;1.77;1.40;;;;;;;;;;5102944;28;20403;-45
2023/02/24 19:18:34;;;;;;;2.25;1.20;;;;;;;;;;5085416;28;20109;-46
2023/02/24 19:21:01;;;;;;;1.55;1.17;;;;;;;;;;5087861;28;21071;-46
2023/02/24 19:23:27;;;;;;;3.00;1.60;;;;;;;;;;5086728;28;20013;-47
2023/02/24 19:25:53;;;;;;;3.78;1.60;;;;;;;;;;5068907;28;20149;-48
2023/02/24 19:28:19;;;;;;;1.73;1.25;;;;;;;;;;5087109;28;20407;-46
2023/02/24 19:30:45;;;;;;;2.10;1.20;;;;;;;;;;5086872;28;20032;-47
2023/02/24 19:33:11;;;;;;;1.83;1.45;;;;;;;;;;5093434;28;20111;-45
2023/02/24 19:35:41;;;;;;;2.28;1.42;;;;;;;;;;5087190;28;20036;-46
2023/02/24 19:38:08;;;;;;;2.22;1.10;;;;;;;;;;5087423;28;20027;-45
2023/02/24 19:40:35;;;;;;;1.45;1.20;;;;;;;;;;5086733;28;20073;-47
2023/02/24 19:43:01;;;;;;;1.92;1.40;;;;;;;;;;5078777;28;20228;-50
2023/02/24 19:45:27;;;;;;;2.03;1.20;;;;;;;;;;5087481;28;20024;-49
2023/02/24 19:47:53;;;;;;;2.42;1.58;;;;;;;;;;5087574;28;20544;-47
2023/02/24 19:50:19;;;;;;;3.38;2.17;;;;;;;;;;5087896;28;20038;-46
2023/02/24 19:52:45;;;;;;;3.28;2.17;;;;;;;;;;5087759;28;20414;-45
2023/02/24 19:55:11;;;;;;;3.78;2.10;;;;;;;;;;5087785;28;20028;-49
2023/02/24 19:57:37;;;;;;;4.15;1.73;;;;;;;;;;5069111;28;20032;-47
2023/02/24 20:00:05;;;;;;;3.35;2.20;;;;;;;;;;5087103;28;20091;-46
2023/02/24 20:02:31;;;;;;;3.95;2.05;;;;;;;;;;5086911;28;20513;-46
2023/02/24 20:04:58;;;;;;;3.88;2.28;;;;;;;;;;5082916;28;20035;-46
2023/02/24 20:07:25;;;;;;;5.70;2.38;;;;;;;;;;5067047;28;20036;-48
2023/02/24 20:09:53;;;;;;;3.88;2.70;;;;;;;;;;5080391;28;20032;-47
2023/02/24 20:12:20;;;;;;;5.40;3.15;;;;;;;;;;5083868;28;20498;-48
2023/02/24 20:14:46;;;;;;;6.07;3.33;;;;;;;;;;5085099;28;20048;-47
2023/02/24 20:17:12;;;;;;;7.35;3.35;;;;;;;;;;5084740;28;20595;-47
2023/02/24 20:19:38;;;;;;;4.68;3.03;;;;;;;;;;5084697;28;20031;-47
2023/02/24 20:22:04;;;;;;;4.95;3.28;;;;;;;;;;5084897;28;20124;-47
2023/02/24 20:24:33;;;;;;;8.18;3.13;;;;;;;;;;5085899;28;20058;-46
2023/02/24 20:27:03;;;;;;;5.18;2.85;;;;;;;;;;5069110;28;20449;-50